createdAt,value
2019-03-18T00:00:26.070Z,97040.00
2019-03-18T00:02:55.443Z,97031.00
2019-03-18T00:05:24.797Z,97042.00
2019-03-18T00:07:54.986Z,97056.00
2019-03-18T00:10:24.575Z,97034.00
2019-03-18T00:12:53.937Z,97042.00
2019-03-18T00:15:23.440Z,97040.00
2019-03-18T00:17:55.546Z,97040.00
2019-03-18T00:20:24.900Z,97049.00
2019-03-18T00:22:54.282Z,97054.00
2019-03-18T00:25:23.639Z,97034.00
2019-03-18T00:27:52.999Z,97037.00
2019-03-18T00:30:22.630Z,97035.00
2019-03-18T00:32:51.985Z,97045.00
2019-03-18T00:35:21.346Z,97043.00
2019-03-18T00:37:50.733Z,97037.00
2019-03-18T00:40:21.125Z,97038.00
2019-03-18T00:42:50.481Z,97044.00
2019-03-18T00:45:19.854Z,97041.00
2019-03-18T00:47:49.209Z,97041.00
2019-03-18T00:50:18.562Z,97056.00
2019-03-18T00:52:48.430Z,97055.00
2019-03-18T00:55:17.797Z,97053.00
2019-03-18T00:57:47.186Z,97080.00
2019-03-18T01:00:18.253Z,97070.00
2019-03-18T01:02:49.693Z,97053.00
2019-03-18T01:05:19.530Z,97052.00
2019-03-18T01:07:49.381Z,97057.00
2019-03-18T01:10:20.111Z,97058.00
2019-03-18T01:12:49.456Z,97054.00
2019-03-18T01:15:28.026Z,97068.00
2019-03-18T01:17:49.922Z,97048.00
2019-03-18T01:20:19.359Z,97064.00
2019-03-18T01:22:48.733Z,97060.00
2019-03-18T01:25:18.085Z,97059.00
2019-03-18T01:27:47.451Z,97070.00
2019-03-18T01:30:17.010Z,97063.00
2019-03-18T01:32:46.381Z,97074.00
2019-03-18T01:35:15.729Z,97074.00
2019-03-18T01:37:45.102Z,97063.00
2019-03-18T01:40:16.003Z,97063.00
2019-03-18T01:42:45.386Z,97066.00
2019-03-18T01:45:14.832Z,97063.00
2019-03-18T01:47:44.189Z,97068.00
2019-03-18T01:50:17.184Z,97062.00
2019-03-18T01:53:06.311Z,96961.00
2019-03-18T02:14:55.995Z,97086.00
2019-03-18T02:17:25.353Z,97082.00
2019-03-18T02:19:54.708Z,97077.00
2019-03-18T02:22:24.098Z,97086.00
2019-03-18T02:24:53.729Z,97074.00
2019-03-18T02:27:23.096Z,97075.00
2019-03-18T02:29:52.500Z,97075.00
2019-03-18T02:32:21.867Z,97083.00
2019-03-18T02:34:51.236Z,97091.00
2019-03-18T02:37:21.299Z,97084.00
2019-03-18T02:39:50.665Z,97092.00
2019-03-18T02:42:20.026Z,97086.00
2019-03-18T02:44:49.445Z,97078.00
2019-03-18T02:47:18.744Z,97090.00
2019-03-18T02:49:48.432Z,97078.00
2019-03-18T02:52:17.812Z,97090.00
2019-03-18T02:54:47.173Z,97080.00
2019-03-18T02:57:16.537Z,97084.00
2019-03-18T02:59:45.997Z,97088.00
2019-03-18T03:02:15.346Z,97084.00
2019-03-18T03:04:45.291Z,97085.00
2019-03-18T03:07:14.700Z,97079.00
2019-03-18T03:09:44.046Z,97083.00
2019-03-18T03:12:13.420Z,97100.00
2019-03-18T03:14:42.866Z,97086.00
2019-03-18T03:17:12.830Z,97089.00
2019-03-18T03:19:42.179Z,97083.00
2019-03-18T03:22:11.992Z,97089.00
2019-03-18T03:24:41.354Z,97095.00
2019-03-18T03:27:10.706Z,97104.00
2019-03-18T03:29:40.109Z,97087.00
2019-03-18T03:32:09.452Z,97102.00
2019-03-18T03:34:38.804Z,97096.00
2019-03-18T03:37:08.207Z,97097.00
2019-03-18T03:39:37.588Z,97091.00
2019-03-18T03:42:07.013Z,97076.00
2019-03-18T03:44:36.755Z,97093.00
2019-03-18T03:47:06.123Z,97092.00
2019-03-18T03:49:35.500Z,97099.00
2019-03-18T03:52:04.877Z,97101.00
2019-03-18T03:54:34.233Z,97105.00
2019-03-18T03:57:03.769Z,97103.00
2019-03-18T03:59:33.357Z,97111.00
2019-03-18T04:02:02.879Z,97102.00
2019-03-18T04:04:32.221Z,97098.00
2019-03-18T04:07:01.931Z,97101.00
2019-03-18T04:09:31.298Z,97089.00
2019-03-18T04:12:00.666Z,97099.00
2019-03-18T04:14:30.049Z,97110.00
2019-03-18T04:17:03.002Z,97116.00
2019-03-18T04:19:31.388Z,97111.00
2019-03-18T04:22:00.786Z,97106.00
2019-03-18T04:24:30.149Z,97114.00
2019-03-18T04:26:59.507Z,97129.00
2019-03-18T04:29:29.239Z,97137.00
2019-03-18T04:31:58.606Z,97133.00
2019-03-18T04:34:27.969Z,97140.00
2019-03-18T04:36:57.336Z,97142.00
2019-03-18T04:39:26.689Z,97143.00
2019-03-18T04:41:56.121Z,97143.00
2019-03-18T04:44:25.531Z,97143.00
2019-03-18T04:46:54.880Z,97153.00
2019-03-18T04:49:24.243Z,97145.00
2019-03-18T04:51:54.050Z,97158.00
2019-03-18T04:54:23.408Z,97163.00
2019-03-18T04:56:52.760Z,97154.00
2019-03-18T04:59:22.146Z,97158.00
2019-03-18T05:01:51.490Z,97152.00
2019-03-18T05:04:20.852Z,97163.00
2019-03-18T05:06:50.242Z,97154.00
2019-03-18T05:09:19.594Z,97174.00
2019-03-18T05:11:48.951Z,97173.00
2019-03-18T05:14:18.376Z,97171.00
2019-03-18T05:16:47.720Z,97153.00
2019-03-18T05:19:17.067Z,97165.00
2019-03-18T05:21:47.600Z,97174.00
2019-03-18T05:24:16.965Z,97169.00
2019-03-18T05:26:46.317Z,97173.00
2019-03-18T05:29:15.688Z,97179.00
2019-03-18T05:31:45.046Z,97183.00
2019-03-18T05:34:14.395Z,97188.00
2019-03-18T05:36:44.118Z,97189.00
2019-03-18T05:39:13.465Z,97203.00
2019-03-18T05:41:42.833Z,97207.00
2019-03-18T05:44:12.241Z,97224.00
2019-03-18T05:46:41.620Z,97225.00
2019-03-18T05:49:13.929Z,97231.00
2019-03-18T05:51:43.345Z,97237.00
2019-03-18T05:54:12.713Z,97236.00
2019-03-18T05:56:42.090Z,97249.00
2019-03-18T05:59:11.848Z,97253.00
2019-03-18T06:01:41.209Z,97262.00
2019-03-18T06:04:10.641Z,97274.00
2019-03-18T06:06:40.025Z,97275.00
2019-03-18T06:09:09.420Z,97290.00
2019-03-18T06:11:38.879Z,97302.00
2019-03-18T06:14:09.830Z,97291.00
2019-03-18T06:16:39.206Z,97294.00
2019-03-18T06:19:08.558Z,97295.00
2019-03-18T06:21:38.353Z,97304.00
2019-03-18T06:24:08.376Z,97320.00
2019-03-18T06:26:40.677Z,97328.00
2019-03-18T06:29:10.064Z,97334.00
2019-03-18T06:31:39.453Z,97330.00
2019-03-18T06:34:08.841Z,97342.00
2019-03-18T06:36:38.243Z,97331.00
2019-03-18T06:39:08.005Z,97336.00
2019-03-18T06:41:37.373Z,97334.00
2019-03-18T06:44:07.198Z,97344.00
2019-03-18T06:46:36.551Z,97344.00
2019-03-18T06:49:05.994Z,97343.00
2019-03-18T06:51:35.403Z,97347.00
2019-03-18T06:54:04.846Z,97353.00
2019-03-18T06:56:34.384Z,97354.00
2019-03-18T06:59:03.766Z,97350.00
2019-03-18T07:01:33.228Z,97362.00
2019-03-18T07:04:02.548Z,97357.00
2019-03-18T07:06:31.975Z,97351.00
2019-03-18T07:09:01.350Z,97356.00
2019-03-18T07:11:30.716Z,97370.00
2019-03-18T07:14:00.098Z,97378.00
2019-03-18T07:16:29.482Z,97379.00
2019-03-18T07:18:58.850Z,97374.00
2019-03-18T07:21:28.236Z,97387.00
2019-03-18T07:23:57.654Z,97393.00
2019-03-18T07:26:27.621Z,97390.00
2019-03-18T07:28:57.725Z,97393.00
2019-03-18T07:31:27.090Z,97391.00
2019-03-18T07:33:56.460Z,97397.00
2019-03-18T07:36:25.842Z,97395.00
2019-03-18T07:38:55.202Z,97393.00
2019-03-18T07:41:24.633Z,97404.00
2019-03-18T07:43:54.027Z,97396.00
2019-03-18T07:46:23.412Z,97427.00
2019-03-18T07:48:52.800Z,97418.00
2019-03-18T07:51:22.237Z,97412.00
2019-03-18T07:53:51.592Z,97417.00
2019-03-18T07:56:20.978Z,97413.00
2019-03-18T07:58:50.362Z,97415.00
2019-03-18T08:01:19.729Z,97432.00
2019-03-18T08:03:49.461Z,97429.00
2019-03-18T08:06:18.859Z,97426.00
2019-03-18T08:08:48.243Z,97427.00
2019-03-18T08:11:17.625Z,97443.00
2019-03-18T08:13:47.057Z,97432.00
2019-03-18T08:16:16.432Z,97444.00
2019-03-18T08:18:45.864Z,97471.00
2019-03-18T08:21:17.945Z,97473.00
2019-03-18T08:23:47.315Z,97471.00
2019-03-18T08:26:16.973Z,97460.00
2019-03-18T08:28:47.412Z,97482.00
2019-03-18T08:31:16.771Z,97471.00
2019-03-18T08:33:46.136Z,97474.00
2019-03-18T08:36:16.310Z,97472.00
2019-03-18T08:38:45.668Z,97479.00
2019-03-18T08:41:15.039Z,97484.00
2019-03-18T08:43:44.442Z,97492.00
2019-03-18T08:46:16.534Z,97491.00
2019-03-18T08:48:55.342Z,97493.00
2019-03-18T08:51:17.370Z,97497.00
2019-03-18T08:53:46.721Z,97512.00
2019-03-18T08:56:16.099Z,97504.00
2019-03-18T08:58:45.485Z,97509.00
2019-03-18T09:01:14.857Z,97519.00
2019-03-18T09:03:44.219Z,97527.00
2019-03-18T09:06:13.615Z,97516.00
2019-03-18T09:08:43.024Z,97527.00
2019-03-18T09:11:14.001Z,97537.00
2019-03-18T09:13:43.432Z,97528.00
2019-03-18T09:16:12.784Z,97533.00
2019-03-18T09:18:42.139Z,97528.00
2019-03-18T09:21:11.539Z,97532.00
2019-03-18T09:23:40.906Z,97543.00
2019-03-18T09:26:10.336Z,97538.00
2019-03-18T09:28:39.783Z,97548.00
2019-03-18T09:31:10.313Z,97554.00
2019-03-18T09:33:39.634Z,97542.00
2019-03-18T09:36:09.057Z,97547.00
2019-03-18T09:38:38.459Z,97553.00
2019-03-18T09:41:07.809Z,97550.00
2019-03-18T09:43:37.173Z,97553.00
2019-03-18T09:46:06.516Z,97541.00
2019-03-18T09:48:35.893Z,97547.00
2019-03-18T09:51:05.344Z,97547.00
2019-03-18T09:53:37.491Z,97547.00
2019-03-18T09:56:05.848Z,97540.00
2019-03-18T09:58:35.529Z,97541.00
2019-03-18T10:01:04.897Z,97552.00
2019-03-18T10:03:34.253Z,97532.00
2019-03-18T10:06:03.635Z,97536.00
2019-03-18T10:08:33.189Z,97541.00
2019-03-18T10:11:02.540Z,97542.00
2019-03-18T10:13:31.913Z,97555.00
2019-03-18T10:16:01.271Z,97553.00
2019-03-18T10:18:30.639Z,97555.00
2019-03-18T10:21:00.475Z,97563.00
2019-03-18T10:23:29.828Z,97565.00
2019-03-18T10:25:59.187Z,97580.00
2019-03-18T10:28:28.572Z,97575.00
2019-03-18T10:30:57.945Z,97578.00
2019-03-18T10:33:27.742Z,97594.00
2019-03-18T10:35:57.123Z,97567.00
2019-03-18T10:38:26.491Z,97595.00
2019-03-18T10:40:55.847Z,97589.00
2019-03-18T10:43:25.292Z,97604.00
2019-03-18T10:45:54.671Z,97602.00
2019-03-18T10:48:24.695Z,97606.00
2019-03-18T10:50:54.091Z,97607.00
2019-03-18T10:53:23.449Z,97609.00
2019-03-18T10:55:52.900Z,97616.00
2019-03-18T10:58:22.285Z,97614.00
2019-03-18T11:00:51.666Z,97625.00
2019-03-18T11:03:21.033Z,97631.00
2019-03-18T11:05:53.490Z,97625.00
2019-03-18T11:08:22.841Z,97609.00
2019-03-18T11:10:52.203Z,97611.00
2019-03-18T11:13:21.568Z,97611.00
2019-03-18T11:15:50.943Z,97615.00
2019-03-18T11:18:20.326Z,97618.00
2019-03-18T11:20:49.710Z,97608.00
2019-03-18T11:23:19.069Z,97621.00
2019-03-18T11:25:48.451Z,97616.00
2019-03-18T11:28:18.234Z,97617.00
2019-03-18T11:30:49.300Z,97625.00
2019-03-18T11:33:18.663Z,97621.00
2019-03-18T11:35:48.293Z,97619.00
2019-03-18T11:38:17.663Z,97623.00
2019-03-18T11:40:47.213Z,97624.00
2019-03-18T11:43:16.630Z,97628.00
2019-03-18T11:45:45.996Z,97636.00
2019-03-18T11:48:15.415Z,97626.00
2019-03-18T11:50:44.873Z,97641.00
2019-03-18T11:53:14.888Z,97639.00
2019-03-18T11:55:44.463Z,97628.00
2019-03-18T11:58:13.876Z,97638.00
2019-03-18T12:00:43.234Z,97636.00
2019-03-18T12:03:12.593Z,97649.00
2019-03-18T12:05:41.968Z,97629.00
2019-03-18T12:08:11.329Z,97638.00
2019-03-18T12:10:40.760Z,97637.00
2019-03-18T12:13:10.501Z,97628.00
2019-03-18T12:15:39.866Z,97627.00
2019-03-18T12:18:09.240Z,97628.00
2019-03-18T12:20:38.629Z,97621.00
2019-03-18T12:23:08.000Z,97627.00
2019-03-18T12:25:37.375Z,97639.00
2019-03-18T12:28:06.947Z,97630.00
2019-03-18T12:30:36.314Z,97628.00
2019-03-18T12:33:05.737Z,97624.00
2019-03-18T12:35:35.489Z,97627.00
2019-03-18T12:38:06.030Z,97634.00
2019-03-18T12:40:35.471Z,97625.00
2019-03-18T12:43:04.966Z,97634.00
2019-03-18T12:45:34.356Z,97613.00
2019-03-18T12:48:03.801Z,97618.00
2019-03-18T12:50:49.381Z,97620.00
2019-03-18T12:53:04.377Z,97622.00
2019-03-18T12:55:33.822Z,97616.00
2019-03-18T12:58:03.611Z,97627.00
2019-03-18T13:00:36.941Z,97617.00
2019-03-18T13:03:06.405Z,97619.00
2019-03-18T13:05:35.860Z,97624.00
2019-03-18T13:08:05.445Z,97624.00
2019-03-18T13:10:34.820Z,97628.00
2019-03-18T13:13:04.739Z,97630.00
2019-03-18T13:15:34.119Z,97619.00
2019-03-18T13:18:03.484Z,97627.00
2019-03-18T13:20:32.891Z,97636.00
2019-03-18T13:23:02.257Z,97626.00
2019-03-18T13:25:31.695Z,97633.00
2019-03-18T13:28:01.078Z,97644.00
2019-03-18T13:30:30.598Z,97631.00
2019-03-18T13:33:00.015Z,97634.00
2019-03-18T13:35:29.718Z,97618.00
2019-03-18T13:37:59.102Z,97616.00
2019-03-18T13:40:29.203Z,97605.00
2019-03-18T13:42:58.604Z,97621.00
2019-03-18T13:45:27.980Z,97617.00
2019-03-18T13:47:57.346Z,97627.00
2019-03-18T13:50:26.739Z,97624.00
2019-03-18T13:52:56.118Z,97626.00
2019-03-18T13:55:25.505Z,97619.00
2019-03-18T13:57:55.735Z,97621.00
2019-03-18T14:00:25.253Z,97643.00
2019-03-18T14:02:54.633Z,97625.00
2019-03-18T14:05:24.034Z,97644.00
2019-03-18T14:08:00.753Z,97653.00
2019-03-18T14:10:26.991Z,97666.00
2019-03-18T14:13:16.102Z,97705.00
2019-03-18T14:15:45.477Z,97710.00
2019-03-18T14:18:14.840Z,97728.00
2019-03-18T14:20:44.237Z,97727.00
2019-03-18T14:23:13.606Z,97720.00
2019-03-18T14:25:45.417Z,97713.00
2019-03-18T14:28:14.100Z,97705.00
2019-03-18T14:30:43.455Z,97707.00
2019-03-18T14:33:12.813Z,97702.00
2019-03-18T14:35:42.805Z,97720.00
2019-03-18T14:38:12.185Z,97713.00
2019-03-18T14:40:41.559Z,97706.00
2019-03-18T14:43:12.133Z,97718.00
2019-03-18T14:45:41.526Z,97722.00
2019-03-18T14:48:10.889Z,97721.00
2019-03-18T14:50:40.319Z,97719.00
2019-03-18T14:53:09.701Z,97721.00
2019-03-18T14:55:39.053Z,97738.00
2019-03-18T14:58:08.476Z,97734.00
2019-03-18T15:00:37.944Z,97718.00
2019-03-18T15:03:07.360Z,97722.00
2019-03-18T15:05:37.153Z,97722.00
2019-03-18T15:08:06.666Z,97718.00
2019-03-18T15:10:36.024Z,97719.00
2019-03-18T15:13:05.424Z,97735.00
2019-03-18T15:15:34.850Z,97718.00
2019-03-18T15:18:04.345Z,97716.00
2019-03-18T15:20:34.190Z,97714.00
2019-03-18T15:23:03.556Z,97714.00
2019-03-18T15:25:35.807Z,97721.00
2019-03-18T15:28:05.429Z,97738.00
2019-03-18T15:30:34.812Z,97741.00
2019-03-18T15:33:06.997Z,97746.00
2019-03-18T15:35:36.416Z,97737.00
2019-03-18T15:38:05.860Z,97737.00
2019-03-18T15:40:35.244Z,97741.00
2019-03-18T15:43:04.714Z,97739.00
2019-03-18T15:45:35.164Z,97735.00
2019-03-18T15:48:04.670Z,97741.00
2019-03-18T15:50:34.104Z,97741.00
2019-03-18T15:53:03.440Z,97751.00
2019-03-18T15:55:32.874Z,97750.00
2019-03-18T15:58:02.293Z,97749.00
2019-03-18T16:00:33.188Z,97765.00
2019-03-18T16:03:02.564Z,97754.00
2019-03-18T16:05:31.968Z,97755.00
2019-03-18T16:08:01.425Z,97761.00
2019-03-18T16:10:30.801Z,97760.00
2019-03-18T16:13:00.193Z,97770.00
2019-03-18T16:15:29.561Z,97765.00
2019-03-18T16:17:59.010Z,97771.00
2019-03-18T16:20:29.115Z,97762.00
2019-03-18T16:22:58.484Z,97786.00
2019-03-18T16:25:27.880Z,97771.00
2019-03-18T16:27:57.279Z,97769.00
2019-03-18T16:30:26.825Z,97776.00
2019-03-18T16:32:56.185Z,97781.00
2019-03-18T16:35:25.734Z,97796.00
2019-03-18T16:37:55.160Z,97782.00
2019-03-18T16:40:25.163Z,97789.00
2019-03-18T16:42:54.994Z,97788.00
2019-03-18T16:45:27.131Z,97801.00
2019-03-18T16:47:56.500Z,97802.00
2019-03-18T16:50:32.317Z,97812.00
2019-03-18T16:53:01.684Z,97811.00
2019-03-18T16:55:31.034Z,97814.00
2019-03-18T16:58:01.770Z,97804.00
2019-03-18T17:00:31.134Z,97823.00
2019-03-18T17:03:00.491Z,97827.00
2019-03-18T17:05:29.892Z,97812.00
2019-03-18T17:07:59.248Z,97822.00
2019-03-18T17:10:31.585Z,97814.00
2019-03-18T17:13:00.965Z,97822.00
2019-03-18T17:15:31.943Z,97827.00
2019-03-18T17:18:01.301Z,97834.00
2019-03-18T17:20:30.728Z,97838.00
2019-03-18T17:23:00.077Z,97845.00
2019-03-18T17:25:34.136Z,97841.00
2019-03-18T17:28:03.529Z,97842.00
2019-03-18T17:30:34.423Z,97857.00
2019-03-18T17:33:03.854Z,97863.00
2019-03-18T17:35:33.713Z,97863.00
2019-03-18T17:38:03.072Z,97870.00
2019-03-18T17:40:32.449Z,97866.00
2019-03-18T17:43:01.812Z,97881.00
2019-03-18T17:45:31.169Z,97880.00
2019-03-18T17:48:00.530Z,97877.00
2019-03-18T17:50:31.485Z,97888.00
2019-03-18T17:53:03.552Z,97872.00
2019-03-18T17:55:31.989Z,97894.00
2019-03-18T17:58:01.469Z,97894.00
2019-03-18T18:00:32.834Z,97889.00
2019-03-18T18:03:02.306Z,97922.00
2019-03-18T18:05:31.693Z,97917.00
2019-03-18T18:08:01.047Z,97919.00
2019-03-18T18:10:30.431Z,97922.00
2019-03-18T18:13:00.429Z,97932.00
2019-03-18T18:15:29.775Z,97921.00
2019-03-18T18:17:59.160Z,97919.00
2019-03-18T18:20:28.940Z,97932.00
2019-03-18T18:22:58.298Z,97937.00
2019-03-18T18:25:27.659Z,97940.00
2019-03-18T18:27:57.038Z,97948.00
2019-03-18T18:30:26.395Z,97946.00
2019-03-18T18:32:55.780Z,97945.00
2019-03-18T18:35:25.165Z,97942.00
2019-03-18T18:37:54.528Z,97954.00
2019-03-18T18:40:31.021Z,97963.00
2019-03-18T18:43:00.472Z,97951.00
2019-03-18T18:45:29.835Z,97965.00
2019-03-18T18:47:59.191Z,97971.00
2019-03-18T18:50:28.593Z,97961.00
2019-03-18T18:52:58.495Z,97964.00
2019-03-18T18:55:27.921Z,97967.00
2019-03-18T18:57:57.261Z,97977.00
2019-03-18T19:00:26.605Z,97985.00
2019-03-18T19:02:55.970Z,97974.00
2019-03-18T19:05:25.489Z,97990.00
2019-03-18T19:07:57.459Z,97982.00
2019-03-18T19:10:25.936Z,97990.00
2019-03-18T19:12:55.331Z,97987.00
2019-03-18T19:15:34.209Z,97997.00
2019-03-18T19:18:03.699Z,97996.00
2019-03-18T19:20:33.049Z,98015.00
2019-03-18T19:23:02.413Z,97990.00
2019-03-18T19:25:31.820Z,98013.00
2019-03-18T19:28:01.256Z,98008.00
2019-03-18T19:30:30.609Z,98010.00
2019-03-18T19:32:59.978Z,98010.00
2019-03-18T19:35:29.344Z,98004.00
2019-03-18T19:37:58.696Z,98030.00
2019-03-18T19:40:28.073Z,98025.00
2019-03-18T19:42:57.432Z,98018.00
2019-03-18T19:45:26.787Z,98018.00
2019-03-18T19:47:56.486Z,98034.00
2019-03-18T19:50:34.855Z,98030.00
2019-03-18T19:53:04.235Z,98042.00
2019-03-18T19:55:34.606Z,98038.00
2019-03-18T19:58:04.040Z,98052.00
2019-03-18T20:00:33.422Z,98046.00
2019-03-18T20:03:02.800Z,98040.00
2019-03-18T20:05:32.156Z,98052.00
2019-03-18T20:08:01.544Z,98048.00
2019-03-18T20:10:30.902Z,98057.00
2019-03-18T20:13:00.299Z,98056.00
2019-03-18T20:15:29.640Z,98050.00
2019-03-18T20:17:58.987Z,98071.00
2019-03-18T20:20:28.350Z,98069.00
2019-03-18T20:22:57.729Z,98070.00
2019-03-18T20:25:27.109Z,98076.00
2019-03-18T20:27:56.459Z,98075.00
2019-03-18T20:30:26.485Z,98075.00
2019-03-18T20:32:55.841Z,98074.00
2019-03-18T20:35:25.746Z,98081.00
2019-03-18T20:37:55.126Z,98085.00
2019-03-18T20:40:24.488Z,98091.00
2019-03-18T20:42:56.467Z,98089.00
2019-03-18T20:45:26.931Z,98093.00
2019-03-18T20:47:56.281Z,98092.00
2019-03-18T20:50:26.000Z,98094.00
2019-03-18T20:52:55.441Z,98111.00
2019-03-18T20:55:24.905Z,98107.00
2019-03-18T20:57:55.616Z,98110.00
2019-03-18T21:00:25.431Z,98120.00
2019-03-18T21:02:54.794Z,98116.00
2019-03-18T21:05:25.337Z,98113.00
2019-03-18T21:07:54.981Z,98122.00
2019-03-18T21:10:24.346Z,98119.00
2019-03-18T21:12:53.720Z,98114.00
2019-03-18T21:15:23.093Z,98120.00
2019-03-18T21:17:52.445Z,98117.00
2019-03-18T21:20:28.249Z,98135.00
2019-03-18T21:22:57.640Z,98150.00
2019-03-18T21:25:27.010Z,98141.00
2019-03-18T21:27:56.364Z,98147.00
2019-03-18T21:30:25.826Z,98142.00
2019-03-18T21:32:58.371Z,98153.00
2019-03-18T21:35:27.708Z,98155.00
2019-03-18T21:37:57.085Z,98151.00
2019-03-18T21:40:26.447Z,98167.00
2019-03-18T21:42:55.846Z,98164.00
2019-03-18T21:45:28.735Z,98170.00
2019-03-18T21:47:58.088Z,98165.00
2019-03-18T21:50:27.459Z,98164.00
2019-03-18T21:52:56.827Z,98171.00
2019-03-18T21:55:26.186Z,98184.00
2019-03-18T21:57:58.758Z,98180.00
2019-03-18T22:00:29.287Z,98182.00
2019-03-18T22:02:58.645Z,98172.00
2019-03-18T22:05:28.079Z,98165.00
2019-03-18T22:07:57.485Z,98177.00
2019-03-18T22:10:26.827Z,98182.00
2019-03-18T22:12:56.191Z,98175.00
2019-03-18T22:15:25.577Z,98168.00
2019-03-18T22:17:55.003Z,98176.00
2019-03-18T22:20:24.432Z,98175.00
2019-03-18T22:23:00.196Z,98194.00
2019-03-18T22:25:29.599Z,98181.00
2019-03-18T22:27:58.967Z,98194.00
2019-03-18T22:30:28.359Z,98182.00
2019-03-18T22:32:57.716Z,98182.00
2019-03-18T22:35:27.064Z,98193.00
2019-03-18T22:37:56.460Z,98194.00
2019-03-18T22:40:26.434Z,98202.00
2019-03-18T22:42:55.789Z,98194.00
2019-03-18T22:45:25.215Z,98210.00
2019-03-18T22:47:54.573Z,98210.00
2019-03-18T22:50:23.931Z,98197.00
2019-03-18T22:52:53.391Z,98209.00
2019-03-18T22:55:22.669Z,98205.00
2019-03-18T22:57:52.034Z,98205.00
2019-03-18T23:00:27.191Z,98198.00
2019-03-18T23:02:57.634Z,98192.00
2019-03-18T23:05:26.989Z,98204.00
2019-03-18T23:07:56.376Z,98203.00
2019-03-18T23:10:25.726Z,98211.00
2019-03-18T23:12:55.092Z,98208.00
2019-03-18T23:15:24.479Z,98201.00
2019-03-18T23:17:53.857Z,98171.00
2019-03-18T23:20:23.210Z,98211.00
2019-03-18T23:22:53.106Z,98220.00
2019-03-18T23:25:25.516Z,98197.00
2019-03-18T23:27:54.871Z,98210.00
2019-03-18T23:30:24.424Z,98211.00
2019-03-18T23:32:53.797Z,98210.00
2019-03-18T23:35:23.171Z,98214.00
2019-03-18T23:37:54.843Z,98215.00
2019-03-18T23:40:24.200Z,98220.00
2019-03-18T23:42:53.551Z,98230.00
2019-03-18T23:45:22.945Z,98214.00
2019-03-18T23:47:52.795Z,98214.00
2019-03-18T23:50:22.169Z,98224.00
2019-03-18T23:52:51.581Z,98223.00
2019-03-18T23:55:20.981Z,98221.00
2019-03-18T23:57:50.357Z,98225.00
